Time;durP1;ratioP1;P1;durP2;ratioP2;P2;SDS_P1;SDS_P2;PMS_P1;PMS_P2;Temp;Humidity;BMP_temperature;BMP_pressure;BME280_temperature;BME280_humidity;BME280_pressure;Samples;Min_cycle;Max_cycle;Signal;HPM_P1;HPM_P2
2023/01/22 00:01:53;;;;;;;88.85;43.88;;;;;;;1.75;90.25;97555.94;10291495;28;20684;-49
2023/01/22 00:06:52;;;;;;;104.00;45.80;;;;;;;1.70;89.93;97557.50;10291039;28;20761;-49
2023/01/22 00:11:51;;;;;;;89.97;40.88;;;;;;;1.69;89.61;97542.09;10292835;28;20041;-49
2023/01/22 00:16:50;;;;;;;75.55;36.85;;;;;;;1.74;90.03;97566.16;10290861;28;20180;-49
2023/01/22 00:21:49;;;;;;;87.82;37.75;;;;;;;1.69;90.41;97575.34;10291618;28;20029;-50
2023/01/22 00:26:48;;;;;;;135.75;58.47;;;;;;;1.79;90.36;97576.53;10290833;28;20069;-50
2023/01/22 00:31:47;;;;;;;233.00;55.53;;;;;;;1.81;90.22;97582.53;10287732;28;20128;-48
2023/01/22 00:36:46;;;;;;;144.90;52.92;;;;;;;1.87;90.36;97587.84;10291954;28;20065;-49
2023/01/22 00:41:45;;;;;;;115.47;50.28;;;;;;;1.94;90.19;97585.50;10288615;28;20121;-48
2023/01/22 00:46:44;;;;;;;110.40;48.75;;;;;;;1.96;90.53;97575.31;10292250;28;20038;-48
2023/01/22 00:51:42;;;;;;;102.60;48.50;;;;;;;2.15;90.58;97598.06;10292025;28;20044;-50
2023/01/22 00:56:41;;;;;;;108.60;53.65;;;;;;;2.16;90.88;97598.94;10291351;28;20417;-50
2023/01/22 01:01:40;;;;;;;106.32;52.85;;;;;;;2.13;90.83;97622.75;10292172;28;20055;-48
2023/01/22 01:06:39;;;;;;;114.40;49.80;;;;;;;2.23;90.67;97631.59;10290246;28;20034;-49
2023/01/22 01:11:38;;;;;;;;;;;;;;;2.37;90.66;97627.75;10292087;28;20069;-48
2023/01/22 01:16:37;;;;;;;87.05;43.78;;;;;;;1.35;89.96;97435.38;10291569;28;20382;-50
2023/01/22 01:21:37;;;;;;;100.90;48.10;;;;;;;2.45;89.96;97627.97;10287073;28;20041;-49
2023/01/22 01:26:38;;;;;;;111.70;52.58;;;;;;;2.50;90.28;97643.47;10306054;28;20553;-50
2023/01/22 01:31:38;;;;;;;199.13;62.38;;;;;;;2.57;90.41;97663.31;10289473;28;20085;-50
2023/01/22 01:36:37;;;;;;;83.43;40.63;;;;;;;2.64;89.92;97649.84;10288968;28;20049;-49
2023/01/22 01:41:36;;;;;;;104.38;47.05;;;;;;;2.58;90.08;97663.38;10283571;28;20125;-48
2023/01/22 01:46:43;;;;;;;89.68;40.97;;;;;;;2.58;90.54;97663.38;10289411;28;20041;-50
2023/01/22 01:51:42;;;;;;;96.05;47.72;;;;;;;2.59;90.33;97654.84;10288084;28;20069;-50
2023/01/22 01:56:47;;;;;;;;;;;;;;;2.71;90.31;97661.13;10290167;28;20061;-50
2023/01/22 02:01:50;;;;;;;105.93;49.70;;;;;;;2.81;90.70;97660.56;10288802;28;19999;-49
2023/01/22 02:06:49;;;;;;;103.47;48.65;;;;;;;1.63;90.07;97478.84;10286364;28;20136;-50
2023/01/22 02:11:50;;;;;;;78.93;37.42;;;;;;;2.50;90.20;97613.59;10288833;28;20386;-50
2023/01/22 02:17:05;;;;;;;65.03;32.55;;;;;;;2.50;89.67;97640.91;10289864;28;20057;-50
2023/01/22 02:22:11;;;;;;;59.00;31.02;;;;;;;2.47;89.96;97657.06;10286555;28;20069;-50
2023/01/22 02:27:11;;;;;;;63.20;33.72;;;;;;;2.55;90.56;97664.94;10288280;28;20053;-49
2023/01/22 02:32:11;;;;;;;73.38;38.03;;;;;;;2.65;90.67;97655.84;10285212;28;20077;-50
2023/01/22 02:37:10;;;;;;;96.13;46.75;;;;;;;2.74;90.71;97654.38;10320419;28;20072;-48
2023/01/22 02:42:09;;;;;;;130.00;55.70;;;;;;;2.81;91.01;97656.31;10287159;28;20446;-51
2023/01/22 02:47:08;;;;;;;127.65;54.97;;;;;;;2.85;90.48;97657.25;10283902;28;20116;-48
2023/01/22 02:52:07;;;;;;;102.35;51.08;;;;;;;2.82;90.57;97664.88;10285175;28;20032;-49
2023/01/22 02:57:06;;;;;;;;;;;;;;;2.63;90.31;97668.63;10292568;28;20073;-49
2023/01/22 03:02:05;;;;;;;80.75;43.08;;;;;;;2.63;90.50;97680.53;10295766;28;19917;-49
2023/01/22 03:07:04;;;;;;;75.25;39.55;;;;;;;2.61;90.68;97680.50;10294974;28;20038;-50
2023/01/22 03:12:03;;;;;;;88.47;46.35;;;;;;;2.65;90.73;97686.56;10296190;28;20080;-50
2023/01/22 03:22:20;;;;;;;120.90;55.28;;;;;;;2.74;90.68;97687.69;10295781;28;19960;-49
2023/01/22 03:27:21;;;;;;;123.80;50.80;;;;;;;2.80;90.72;97685.31;10293558;28;20084;-51
2023/01/22 03:32:21;;;;;;;133.00;51.88;;;;;;;2.74;90.66;97697.09;10291907;28;20181;-50
2023/01/22 03:37:20;;;;;;;127.68;52.25;;;;;;;1.01;89.93;97406.25;10295974;28;20501;-50
2023/01/22 03:42:19;;;;;;;318.50;82.10;;;;;;;2.61;91.62;97706.13;10293926;28;20497;-50
2023/01/22 03:47:18;;;;;;;102.57;47.60;;;;;;;2.28;91.96;97711.97;10294754;28;20038;-51
2023/01/22 03:52:17;;;;;;;104.18;47.70;;;;;;;2.06;91.70;97682.25;10292942;28;20029;-47
2023/01/22 03:57:16;;;;;;;134.93;58.78;;;;;;;2.22;91.63;97710.91;10294258;28;20895;-49
2023/01/22 04:02:15;;;;;;;465.52;79.55;;;;;;;2.16;92.10;97716.69;10293159;28;20463;-50
2023/01/22 04:07:14;;;;;;;219.90;63.00;;;;;;;2.28;92.02;97716.22;10293691;28;20099;-49
2023/01/22 04:12:12;;;;;;;277.77;72.28;;;;;;;2.15;91.60;97677.44;10290797;28;20081;-50
2023/01/22 04:17:11;;;;;;;219.43;74.25;;;;;;;2.51;91.38;97728.03;10293986;28;20117;-48
2023/01/22 04:22:10;;;;;;;178.93;61.78;;;;;;;2.57;91.77;97729.91;10293199;28;20117;-49
2023/01/22 04:27:09;;;;;;;173.15;64.68;;;;;;;2.67;91.61;97736.16;10292378;28;20036;-48
2023/01/22 04:32:08;;;;;;;327.80;74.45;;;;;;;2.32;91.64;97669.38;10292875;28;20048;-50
2023/01/22 04:37:07;;;;;;;241.18;68.90;;;;;;;2.70;91.29;97726.00;10292897;28;20516;-48
2023/01/22 04:42:09;;;;;;;291.92;82.00;;;;;;;2.70;91.76;97741.38;10291546;28;20578;-51
2023/01/22 04:47:08;;;;;;;252.85;67.75;;;;;;;2.67;91.42;97741.28;10290420;28;20062;-51
2023/01/22 04:52:07;;;;;;;287.00;73.13;;;;;;;2.37;92.35;97752.34;10292393;28;20041;-53
2023/01/22 04:57:06;;;;;;;193.48;54.92;;;;;;;2.16;92.89;97762.78;10287028;28;20845;-49
2023/01/22 05:02:05;;;;;;;424.13;60.13;;;;;;;2.05;92.62;97726.59;10291201;28;20025;-50
2023/01/22 05:07:04;;;;;;;240.45;53.53;;;;;;;2.01;92.01;97717.09;10292023;28;20044;-48
2023/01/22 05:12:03;;;;;;;311.15;59.22;;;;;;;2.38;92.14;97766.91;10290308;28;20045;-48
2023/01/22 05:17:02;;;;;;;;;;;;;;;2.57;92.19;97786.25;10291679;28;20076;-49
2023/01/22 05:22:01;;;;;;;193.25;50.25;;;;;;;2.57;91.75;97789.69;10289223;28;19917;-49
2023/01/22 05:27:00;;;;;;;175.80;47.72;;;;;;;2.53;91.96;97789.53;10291665;28;20694;-50
2023/01/22 05:31:59;;;;;;;232.30;46.70;;;;;;;2.46;91.37;97779.94;10290741;28;20081;-48
2023/01/22 05:36:58;;;;;;;212.07;48.60;;;;;;;2.31;91.73;97788.00;10287808;28;20069;-48
2023/01/22 05:41:57;;;;;;;186.82;56.65;;;;;;;2.27;91.24;97798.97;10288336;28;20037;-49
2023/01/22 05:46:56;;;;;;;191.25;57.47;;;;;;;1.93;92.58;97787.63;10289603;28;20673;-49
2023/01/22 05:51:54;;;;;;;286.85;63.10;;;;;;;1.92;93.14;97798.69;10290471;28;20025;-49
2023/01/22 05:56:53;;;;;;;249.25;56.95;;;;;;;1.30;95.17;97828.94;10289669;28;20034;-49
2023/01/22 06:01:53;;;;;;;326.27;63.90;;;;;;;1.20;96.36;97840.50;10288945;28;20029;-50
2023/01/22 06:06:52;;;;;;;264.75;63.13;;;;;;;1.01;97.01;97843.16;10290196;28;20065;-49
2023/01/22 06:11:51;;;;;;;466.85;82.40;;;;;;;1.24;96.92;97847.44;10288242;28;20104;-49
2023/01/22 06:16:50;;;;;;;;;;;;;;;1.46;96.54;97866.16;10290832;28;20057;-49
2023/01/22 06:21:48;;;;;;;305.77;53.90;;;;;;;1.57;95.83;97862.28;10285208;28;19913;-49
2023/01/22 06:26:47;;;;;;;295.00;52.45;;;;;;;1.62;95.19;97876.13;10288646;28;20455;-50
2023/01/22 06:31:46;;;;;;;305.77;65.47;;;;;;;1.75;95.14;97873.16;10286935;28;20542;-48
2023/01/22 06:36:45;;;;;;;303.63;48.60;;;;;;;1.84;94.49;97882.00;10287277;28;20034;-50
2023/01/22 06:41:47;;;;;;;331.55;57.22;;;;;;;1.85;94.40;97881.16;10287970;28;20044;-50
2023/01/22 06:46:46;;;;;;;255.05;66.82;;;;;;;1.93;94.69;97884.88;10287392;28;20073;-48
2023/01/22 06:51:45;;;;;;;194.70;54.90;;;;;;;1.94;94.87;97872.13;10288843;28;20539;-48
2023/01/22 06:56:44;;;;;;;210.55;50.63;;;;;;;2.29;94.53;97892.94;10286696;28;20454;-49
2023/01/22 07:01:43;;;;;;;226.57;61.28;;;;;;;2.20;94.35;97871.28;10287613;28;20849;-49
2023/01/22 07:06:42;;;;;;;198.77;63.15;;;;;;;2.44;95.03;97900.28;10284991;28;20030;-48
2023/01/22 07:11:41;;;;;;;242.85;76.00;;;;;;;2.56;94.55;97905.81;10288235;28;20081;-50
2023/01/22 07:16:40;;;;;;;206.23;72.85;;;;;;;2.81;94.66;97916.81;10287961;28;20049;-50
2023/01/22 07:21:39;;;;;;;248.35;70.00;;;;;;;2.84;94.01;97929.75;10234885;28;20814;-48
2023/01/22 07:26:38;;;;;;;438.73;98.30;;;;;;;2.71;92.59;97915.66;10287706;28;20129;-49
2023/01/22 07:31:37;;;;;;;524.75;106.13;;;;;;;2.85;93.23;97931.50;10288139;28;20046;-48
2023/01/22 07:36:36;;;;;;;229.80;83.35;;;;;;;2.87;93.35;97917.03;10285186;28;20128;-48
2023/01/22 07:41:35;;;;;;;156.27;65.53;;;;;;;3.21;93.36;97943.72;10289197;28;20021;-50
2023/01/22 07:46:34;;;;;;;229.48;68.72;;;;;;;3.40;92.00;97953.72;10290468;28;20500;-50
2023/01/22 07:51:33;;;;;;;168.15;65.35;;;;;;;3.35;90.22;97939.00;10294727;28;20069;-56
2023/01/22 07:56:32;;;;;;;183.63;75.93;;;;;;;2.96;90.89;97890.84;10292996;28;20061;-53
2023/01/22 08:01:31;;;;;;;198.63;81.43;;;;;;;3.43;90.50;97964.09;10294047;28;20128;-50
2023/01/22 08:06:30;;;;;;;242.65;88.63;;;;;;;3.44;91.51;97970.06;10292098;28;20065;-49
2023/01/22 08:11:29;;;;;;;289.83;100.35;;;;;;;3.41;90.93;97968.28;10291691;28;20037;-51
2023/01/22 08:16:28;;;;;;;243.93;95.32;;;;;;;3.63;91.43;97979.19;10291844;28;20113;-51
2023/01/22 08:21:27;;;;;;;246.32;98.97;;;;;;;3.76;90.43;97977.88;10291357;28;20045;-51
2023/01/22 08:26:26;;;;;;;300.52;97.63;;;;;;;3.95;89.77;97979.28;10292071;28;20132;-51
2023/01/22 08:31:25;;;;;;;264.48;87.88;;;;;;;3.80;89.27;97988.28;10286753;28;20063;-50
2023/01/22 08:36:24;;;;;;;197.70;78.78;;;;;;;3.85;90.00;97989.28;10292099;28;20033;-50
2023/01/22 08:41:23;;;;;;;190.77;52.45;;;;;;;3.93;88.86;97986.06;10289106;28;20073;-50
2023/01/22 08:46:22;;;;;;;168.15;47.28;;;;;;;3.77;89.26;98000.13;10321158;28;20560;-48
2023/01/22 08:51:23;;;;;;;122.45;49.33;;;;;;;3.96;89.98;97993.84;10290140;28;20049;-51
2023/01/22 08:56:22;;;;;;;137.45;47.15;;;;;;;4.19;89.39;97997.94;10286764;28;20062;-51
2023/01/22 09:01:21;;;;;;;98.68;43.08;;;;;;;4.55;89.30;97984.38;10287772;28;20048;-51
2023/01/22 09:06:22;;;;;;;120.82;51.80;;;;;;;4.86;88.57;97982.59;10290559;28;20041;-49
2023/01/22 09:11:21;;;;;;;95.32;49.10;;;;;;;5.04;88.04;97980.50;10285240;28;20128;-49
2023/01/22 09:16:19;;;;;;;133.07;54.63;;;;;;;5.21;86.90;97977.47;10289915;28;20038;-51
2023/01/22 09:21:19;;;;;;;125.63;61.10;;;;;;;5.18;86.40;97961.94;10282453;28;20040;-50
2023/01/22 09:26:18;;;;;;;196.18;88.22;;;;;;;5.17;85.83;97965.34;10282789;28;20137;-51
2023/01/22 09:31:17;;;;;;;209.80;100.88;;;;;;;5.34;85.94;97964.03;10285311;28;20088;-51
2023/01/22 09:36:16;;;;;;;202.75;96.38;;;;;;;5.63;85.63;97958.69;10283949;28;20058;-50
2023/01/22 09:41:25;;;;;;;201.98;99.38;;;;;;;5.66;85.49;97961.31;10288148;28;20045;-51
2023/01/22 09:46:33;;;;;;;217.85;97.30;;;;;;;5.97;84.09;97960.25;10285352;28;20130;-51
2023/01/22 09:51:32;;;;;;;223.48;109.50;;;;;;;6.04;84.35;97949.22;10281581;28;20076;-49
2023/01/22 09:56:37;;;;;;;229.98;111.57;;;;;;;6.26;82.46;97954.78;10282254;28;20029;-49
2023/01/22 10:01:36;;;;;;;202.50;101.70;;;;;;;6.19;82.83;97956.41;10290588;28;20069;-50
2023/01/22 10:06:35;;;;;;;206.30;107.93;;;;;;;6.34;82.99;97959.25;10289147;28;20512;-50
2023/01/22 10:11:37;;;;;;;202.05;114.63;;;;;;;6.41;82.13;97919.00;10282868;28;20558;-51
2023/01/22 10:16:36;;;;;;;196.80;110.70;;;;;;;6.72;81.60;97955.66;10288678;28;20054;-50
2023/01/22 10:21:48;;;;;;;216.20;122.15;;;;;;;6.83;82.16;97949.84;10286444;28;20053;-54
2023/01/22 10:26:53;;;;;;;188.23;110.88;;;;;;;7.21;80.01;97951.28;10288408;28;20069;-52
2023/01/22 10:31:55;;;;;;;195.00;113.30;;;;;;;7.25;80.56;97946.19;10287101;28;20564;-51
2023/01/22 10:36:58;;;;;;;174.13;108.70;;;;;;;7.56;79.14;97956.16;10281705;28;20468;-49
2023/01/22 10:42:01;;;;;;;188.68;112.72;;;;;;;7.23;78.49;97887.66;10273569;28;20072;-51
2023/01/22 10:47:08;;;;;;;187.85;116.13;;;;;;;7.95;79.58;97947.19;10285677;28;20164;-50
2023/01/22 10:52:41;;;;;;;173.07;109.50;;;;;;;8.08;78.40;97937.03;10285119;28;20057;-50
2023/01/22 10:57:47;;;;;;;180.73;108.55;;;;;;;8.55;78.69;97924.59;10281618;28;20066;-49
2023/01/22 11:02:49;;;;;;;168.63;105.68;;;;;;;8.96;75.11;97931.88;10285507;28;20100;-50
2023/01/22 11:07:59;;;;;;;139.90;88.90;;;;;;;9.11;75.25;97939.72;10283755;28;20141;-49
2023/01/22 11:13:09;;;;;;;133.70;84.50;;;;;;;8.63;74.99;97885.00;10285294;28;20528;-50
2023/01/22 11:18:17;;;;;;;144.35;102.22;;;;;;;8.91;75.05;97940.44;10283643;28;20461;-50
2023/01/22 11:23:22;;;;;;;94.85;66.10;;;;;;;8.97;75.76;97943.94;10292929;28;20581;-50
2023/01/22 11:28:47;;;;;;;118.88;79.22;;;;;;;9.20;75.39;97941.53;10294909;28;20115;-50
2023/01/22 11:34:27;;;;;;;105.93;77.78;;;;;;;9.62;74.15;97925.44;10282071;28;20092;-51
2023/01/22 11:39:39;;;;;;;105.05;73.13;;;;;;;9.98;74.04;97929.09;10266955;28;20137;-49
2023/01/22 11:44:58;;;;;;;131.13;90.85;;;;;;;10.19;71.23;97933.44;10291436;28;20492;-52
2023/01/22 11:50:05;;;;;;;106.90;78.05;;;;;;;10.35;72.53;97932.63;10289551;28;20513;-49
2023/01/22 11:55:55;;;;;;;172.15;130.55;;;;;;;10.65;71.46;97932.72;10291371;28;20509;-52
2023/01/22 12:01:26;;;;;;;112.40;82.35;;;;;;;10.74;69.30;97933.59;10270211;28;20144;-52
2023/01/22 12:06:57;;;;;;;113.47;84.78;;;;;;;10.84;69.90;97908.50;10277590;28;20520;-49
2023/01/22 12:12:17;;;;;;;120.78;86.07;;;;;;;11.00;68.64;97936.22;10287178;28;20401;-51
2023/01/22 12:17:31;;;;;;;97.57;69.82;;;;;;;11.02;69.22;97939.69;10288172;28;20057;-51
2023/01/22 12:22:36;;;;;;;98.32;69.88;;;;;;;10.98;70.01;97943.16;10286710;28;20057;-51
2023/01/22 12:27:41;;;;;;;93.55;67.43;;;;;;;11.10;70.10;97942.28;10280947;28;20144;-50
2023/01/22 12:32:45;;;;;;;69.07;50.55;;;;;;;11.11;70.50;97948.38;10271842;28;20125;-49
2023/01/22 12:37:49;;;;;;;120.70;80.07;;;;;;;10.92;70.86;97953.56;10281942;28;20140;-49
2023/01/22 12:42:58;;;;;;;65.53;48.60;;;;;;;11.07;71.67;97942.28;10273942;28;20486;-49
2023/01/22 12:48:10;;;;;;;70.32;48.80;;;;;;;11.19;71.11;97937.09;10284505;28;20532;-51
2023/01/22 12:53:30;;;;;;;68.93;52.60;;;;;;;11.18;71.02;97956.16;10287205;28;20072;-52
2023/01/22 12:58:35;;;;;;;78.57;60.65;;;;;;;11.20;70.91;97958.75;10288059;28;20069;-50
2023/01/22 13:03:34;;;;;;;94.75;67.50;;;;;;;11.15;70.77;97968.25;10287914;28;20061;-50
2023/01/22 13:08:42;;;;;;;103.88;76.60;;;;;;;11.01;71.44;97969.13;10287580;28;20073;-49
2023/01/22 13:13:57;;;;;;;95.07;66.95;;;;;;;11.09;71.22;97966.53;10276539;28;20077;-49
2023/01/22 13:18:57;;;;;;;105.25;76.95;;;;;;;11.24;71.08;97970.84;10286339;28;20073;-51
2023/01/22 13:24:12;;;;;;;84.43;60.85;;;;;;;11.41;70.24;97963.94;10287951;28;20478;-52
2023/01/22 13:29:31;;;;;;;65.13;47.70;;;;;;;11.22;71.41;97977.78;10279856;28;20116;-50
2023/01/22 13:34:31;;;;;;;59.80;43.23;;;;;;;11.42;71.23;97989.03;10286680;28;20076;-49
2023/01/22 13:39:32;;;;;;;52.42;39.63;;;;;;;11.59;70.36;97985.56;10281082;28;20050;-51
2023/01/22 13:44:46;;;;;;;39.90;28.08;;;;;;;11.76;69.67;97996.81;10277317;28;20593;-50
2023/01/22 13:49:46;;;;;;;39.08;28.35;;;;;;;11.87;70.20;97997.63;10294568;28;20124;-51
2023/01/22 13:54:54;;;;;;;36.78;27.75;;;;;;;11.94;69.76;98000.22;10317455;28;20064;-49
2023/01/22 13:59:55;;;;;;;33.17;25.65;;;;;;;12.07;69.84;97996.72;10285788;28;20575;-50
2023/01/22 14:04:54;;;;;;;34.90;27.40;;;;;;;12.00;70.50;97987.22;10285873;28;20080;-49
2023/01/22 14:09:54;;;;;;;;;;;;;;;12.18;70.65;98002.78;10284238;28;20116;-51
2023/01/22 14:14:53;;;;;;;167.20;93.63;;;;;;;12.23;70.92;98011.41;10285327;28;20415;-50
2023/01/22 14:19:52;;;;;;;35.25;24.30;;;;;;;12.26;70.60;98008.81;10286186;28;20312;-49
2023/01/22 14:24:52;;;;;;;30.23;22.08;;;;;;;12.18;70.74;98015.78;10285281;28;20038;-47
2023/01/22 14:29:52;;;;;;;27.38;19.58;;;;;;;12.08;71.03;98016.66;10284165;28;20069;-52
2023/01/22 14:34:51;;;;;;;30.98;20.25;;;;;;;12.00;71.68;98026.22;10260029;28;20581;-49
2023/01/22 14:39:50;;;;;;;31.27;22.15;;;;;;;11.82;72.01;98027.13;10272835;28;20568;-51
2023/01/22 14:44:49;;;;;;;35.65;29.23;;;;;;;11.70;72.86;98035.81;10277587;28;20561;-52
2023/01/22 14:49:48;;;;;;;40.47;29.33;;;;;;;11.57;73.79;98039.28;10282215;28;20908;-49
2023/01/22 14:54:46;;;;;;;91.50;65.00;;;;;;;11.09;74.16;97973.47;10279865;28;20398;-49
2023/01/22 14:59:45;;;;;;;56.80;44.13;;;;;;;11.34;75.23;98037.56;10276949;28;20394;-50
2023/01/22 15:04:45;;;;;;;42.92;34.80;;;;;;;11.23;74.62;98036.69;10283585;28;20072;-51
2023/01/22 15:09:44;;;;;;;38.22;30.48;;;;;;;10.97;74.90;98042.69;10283767;28;20340;-50
2023/01/22 15:14:43;;;;;;;58.40;43.10;;;;;;;10.83;75.04;98047.81;10283690;28;20026;-50
2023/01/22 15:19:42;;;;;;;81.82;56.70;;;;;;;10.61;75.92;98052.09;10284963;28;20108;-51
2023/01/22 15:24:42;;;;;;;66.32;46.67;;;;;;;10.45;75.87;98057.19;10282816;28;20807;-49
2023/01/22 15:29:41;;;;;;;34.72;26.23;;;;;;;10.33;75.96;98061.50;10284801;28;20482;-49
2023/01/22 15:34:40;;;;;;;90.85;58.88;;;;;;;10.15;76.00;98059.66;10281508;28;20052;-49
2023/01/22 15:39:40;;;;;;;65.85;42.85;;;;;;;9.98;76.10;98069.94;10278987;28;20028;-50
2023/01/22 15:44:40;;;;;;;104.50;64.70;;;;;;;9.80;76.47;98071.53;10278348;28;20133;-49
2023/01/22 15:49:39;;;;;;;34.88;23.85;;;;;;;9.45;77.14;98078.16;10271919;28;20129;-52
2023/01/22 15:54:37;;;;;;;;;;;;;;;9.19;78.21;98085.66;10282463;28;20076;-50
2023/01/22 15:59:40;;;;;;;35.08;22.80;;;;;;;9.05;78.43;98093.28;10282098;28;19917;-48
2023/01/22 16:04:39;;;;;;;47.13;31.25;;;;;;;8.91;78.23;98094.88;10287390;28;20061;-49
2023/01/22 16:09:38;;;;;;;195.60;106.25;;;;;;;8.76;79.50;98094.69;10290459;28;20038;-50
2023/01/22 16:14:37;;;;;;;120.68;82.93;;;;;;;8.63;79.96;98106.63;10290104;28;20072;-51
2023/01/22 16:19:36;;;;;;;85.28;61.05;;;;;;;8.57;80.09;98120.31;10288094;28;20512;-49
2023/01/22 16:24:35;;;;;;;65.50;45.40;;;;;;;8.42;80.69;98100.31;10288339;28;20030;-50
2023/01/22 16:29:34;;;;;;;79.03;57.05;;;;;;;8.44;81.35;98134.84;10290078;28;20081;-50
2023/01/22 16:34:33;;;;;;;54.45;33.53;;;;;;;8.38;81.61;98132.16;10284585;28;20030;-49
2023/01/22 16:39:32;;;;;;;74.95;47.67;;;;;;;8.34;81.69;98148.50;10279655;28;20406;-51
2023/01/22 16:44:31;;;;;;;75.53;47.08;;;;;;;8.33;81.92;98144.16;10275264;28;20541;-51
2023/01/22 16:49:32;;;;;;;53.50;36.00;;;;;;;8.29;82.00;98150.13;10273832;28;20505;-52
2023/01/22 16:54:34;;;;;;;66.97;45.17;;;;;;;8.13;82.33;98155.91;10289088;28;20068;-49
2023/01/22 16:59:35;;;;;;;49.03;32.45;;;;;;;8.09;82.35;98152.44;10288572;28;20068;-50
2023/01/22 17:04:34;;;;;;;49.67;30.67;;;;;;;7.99;82.53;98156.59;10285070;28;20057;-51
2023/01/22 17:09:35;;;;;;;44.03;28.45;;;;;;;7.69;82.49;98125.97;10289738;28;20452;-48
2023/01/22 17:14:36;;;;;;;45.20;26.70;;;;;;;7.72;82.67;98166.47;10268319;28;20062;-49
2023/01/22 17:19:35;;;;;;;57.90;33.72;;;;;;;7.56;83.08;98163.59;10287045;28;20061;-50
2023/01/22 17:24:35;;;;;;;161.20;86.22;;;;;;;7.33;84.05;98168.31;10270223;28;20082;-49
2023/01/22 17:29:35;;;;;;;60.90;35.17;;;;;;;6.80;86.34;98181.94;10266672;28;20132;-47
2023/01/22 17:34:36;;;;;;;77.38;45.45;;;;;;;6.63;86.48;98147.16;10288242;28;20107;-48
2023/01/22 17:39:36;;;;;;;115.65;63.60;;;;;;;6.83;86.14;98188.88;10274583;28;20113;-49
2023/01/22 17:44:35;;;;;;;60.58;35.55;;;;;;;6.50;87.34;98186.44;10283966;28;20454;-51
2023/01/22 17:49:34;;;;;;;77.25;46.58;;;;;;;6.27;87.62;98148.13;10284604;28;20792;-51
2023/01/22 17:54:34;;;;;;;77.15;44.05;;;;;;;6.46;86.49;98188.06;10286082;28;20146;-52
2023/01/22 17:59:33;;;;;;;93.43;50.15;;;;;;;6.37;86.66;98196.50;10287246;28;20038;-49
2023/01/22 18:04:33;;;;;;;134.02;79.80;;;;;;;6.12;88.25;98197.63;10300428;28;20038;-51
2023/01/22 18:09:32;;;;;;;73.38;45.58;;;;;;;6.01;87.80;98216.22;10278218;28;20081;-48
2023/01/22 18:14:32;;;;;;;91.82;48.53;;;;;;;5.91;89.15;98218.56;10281770;28;20065;-49
2023/01/22 18:19:31;;;;;;;105.35;58.92;;;;;;;5.90;88.45;98214.25;10284460;28;20053;-49
2023/01/22 18:24:33;;;;;;;83.88;41.50;;;;;;;5.90;87.98;98229.69;10285478;28;20040;-48
2023/01/22 18:29:31;;;;;;;93.65;46.78;;;;;;;5.86;88.13;98221.84;10282287;28;20080;-50
2023/01/22 18:34:30;;;;;;;115.18;59.17;;;;;;;5.83;88.00;98226.94;10299929;28;20034;-50
2023/01/22 18:39:30;;;;;;;115.97;58.60;;;;;;;5.76;88.81;98231.06;10286891;28;20030;-49
2023/01/22 18:44:29;;;;;;;131.48;71.13;;;;;;;5.61;88.82;98239.25;10279067;28;20229;-48
2023/01/22 18:49:28;;;;;;;166.73;92.35;;;;;;;5.64;88.68;98246.19;10282051;28;20034;-48
2023/01/22 18:54:27;;;;;;;154.85;81.53;;;;;;;5.59;88.97;98240.06;10284420;28;20069;-51
2023/01/22 18:59:26;;;;;;;115.47;63.08;;;;;;;5.55;89.41;98246.81;10286130;28;20131;-48
2023/01/22 19:04:27;;;;;;;93.40;50.80;;;;;;;5.50;89.88;98228.66;10286568;28;20019;-49
2023/01/22 19:09:26;;;;;;;147.05;84.18;;;;;;;5.44;90.31;98248.22;10281784;28;20141;-48
2023/01/22 19:14:25;;;;;;;114.65;65.28;;;;;;;5.25;90.94;98226.25;10279514;28;20046;-50
2023/01/22 19:19:26;;;;;;;110.70;63.30;;;;;;;5.66;90.74;98254.81;10284645;28;20504;-50
2023/01/22 19:24:27;;;;;;;158.57;94.45;;;;;;;5.74;89.85;98261.03;10283270;28;20073;-47
2023/01/22 19:29:26;;;;;;;159.02;99.80;;;;;;;5.81;90.22;98252.63;10280759;28;20065;-50
2023/01/22 19:34:27;;;;;;;150.38;90.95;;;;;;;5.79;90.17;98254.31;10287282;28;20698;-48
2023/01/22 19:39:26;;;;;;;151.25;86.18;;;;;;;5.78;89.79;98249.13;10306447;28;20076;-50
2023/01/22 19:44:25;;;;;;;137.43;81.88;;;;;;;5.80;89.32;98250.03;10290956;28;20030;-49
2023/01/22 19:49:24;;;;;;;113.53;66.50;;;;;;;5.79;89.29;98250.84;10304183;28;20806;-49
2023/01/22 19:54:23;;;;;;;143.93;85.05;;;;;;;5.63;89.93;98239.31;10288437;28;20041;-47
2023/01/22 19:59:23;;;;;;;97.50;57.50;;;;;;;5.24;90.78;98214.22;10298564;28;20477;-48
2023/01/22 20:04:25;;;;;;;72.15;38.47;;;;;;;5.62;90.35;98273.59;10314785;28;20073;-49
2023/01/22 20:09:24;;;;;;;61.40;31.45;;;;;;;5.64;90.59;98277.09;10327503;28;20441;-50
2023/01/22 20:14:32;;;;;;;61.22;33.83;;;;;;;5.59;90.49;98278.66;10330399;28;20489;-48
2023/01/22 20:19:31;;;;;;;70.47;34.35;;;;;;;5.54;90.71;98266.53;10331188;28;20057;-47
2023/01/22 20:24:30;;;;;;;;;;;;;;;5.48;91.02;98276.66;10332798;28;20068;-49
2023/01/22 20:29:29;;;;;;;62.22;28.35;;;;;;;5.62;90.51;98279.59;10330184;28;20011;-50
2023/01/22 20:34:28;;;;;;;63.83;28.02;;;;;;;5.66;90.17;98270.28;10327254;28;20164;-49
2023/01/22 20:39:27;;;;;;;;;;;;;;;5.69;89.72;98278.06;10330908;28;20508;-50
2023/01/22 20:44:26;;;;;;;87.88;40.67;;;;;;;5.68;90.45;98278.91;10328784;28;19923;-48
2023/01/22 20:49:24;;;;;;;102.90;46.60;;;;;;;5.79;89.84;98274.03;10325302;28;20072;-48
2023/01/22 20:54:23;;;;;;;70.43;32.30;;;;;;;5.84;90.21;98269.91;10321919;28;20033;-51
2023/01/22 20:59:24;;;;;;;78.00;31.67;;;;;;;5.68;90.27;98260.91;10335487;28;20102;-49
2023/01/22 21:04:23;;;;;;;96.40;37.28;;;;;;;5.67;90.50;98264.28;10330982;28;20063;-49
2023/01/22 21:09:22;;;;;;;;;;;;;;;5.73;90.89;98273.03;10328060;28;20132;-47
2023/01/22 21:14:24;;;;;;;100.85;43.65;;;;;;;5.22;90.89;98188.44;10323636;28;19927;-48
2023/01/22 21:19:24;;;;;;;79.60;30.80;;;;;;;5.85;90.38;98263.91;10324147;28;20467;-47
2023/01/22 21:24:23;;;;;;;139.32;63.75;;;;;;;5.79;91.06;98263.72;10321240;28;20473;-47
2023/01/22 21:29:23;;;;;;;84.43;37.97;;;;;;;5.89;90.36;98258.00;10315452;28;20420;-50
2023/01/22 21:34:22;;;;;;;;;;;;;;;6.00;90.36;98261.72;10314468;28;20068;-47
2023/01/22 21:39:24;;;;;;;74.00;35.07;;;;;;;5.97;89.65;98252.19;10324380;28;20022;-48
2023/01/22 21:49:41;;;;;;;101.63;44.70;;;;;;;6.05;89.58;98254.13;10325937;28;20069;-49
2023/01/22 21:54:40;;;;;;;84.43;36.65;;;;;;;6.12;90.27;98253.44;10324265;28;20133;-48
2023/01/22 21:59:40;;;;;;;75.45;32.05;;;;;;;6.13;89.89;98263.75;10325039;28;20084;-47
2023/01/22 22:04:40;;;;;;;78.57;32.63;;;;;;;6.18;89.29;98254.44;10324685;28;20065;-47
2023/01/22 22:09:39;;;;;;;73.72;31.27;;;;;;;6.00;89.72;98235.97;10324778;28;20114;-49
2023/01/22 22:14:38;;;;;;;;;;;;;;;6.24;89.81;98255.44;10323522;28;20576;-48
2023/01/22 22:19:37;;;;;;;75.95;34.00;;;;;;;6.28;89.13;98258.13;10327161;28;19917;-48
2023/01/22 22:24:36;;;;;;;107.00;47.75;;;;;;;6.32;89.42;98254.75;10323608;28;20468;-49
2023/01/22 22:29:35;;;;;;;88.22;36.35;;;;;;;6.23;89.13;98270.00;10324116;28;20132;-48
2023/01/22 22:34:34;;;;;;;113.13;36.65;;;;;;;6.00;90.17;98271.13;10326284;28;20104;-49
2023/01/22 22:39:33;;;;;;;93.32;36.92;;;;;;;5.35;89.97;98187.09;10323329;28;20029;-50
2023/01/22 22:44:34;;;;;;;102.70;36.40;;;;;;;5.92;90.55;98279.53;10319638;28;20165;-48
2023/01/22 22:49:33;;;;;;;123.72;42.55;;;;;;;5.88;90.57;98277.75;10319905;28;20132;-48
2023/01/22 22:54:32;;;;;;;157.85;50.28;;;;;;;5.78;90.94;98285.19;10323834;28;20489;-50
2023/01/22 22:59:31;;;;;;;244.80;75.95;;;;;;;5.41;91.83;98233.56;10323261;28;20127;-49
2023/01/22 23:04:32;;;;;;;215.80;52.05;;;;;;;5.44;91.98;98279.09;10323292;28;20471;-50
2023/01/22 23:09:31;;;;;;;242.23;53.17;;;;;;;5.48;92.41;98274.09;10321979;28;20125;-48